Weather at Weller Canyon Airport

Public forecast

Using degrees Fahrenheit for public forecast. Weather courtesy of forecast.io.

Closest aviation weather report (METAR) to Weller Canyon Airport

Report is more than 6 hours old.

Closest report is Walla Walla Regional Airport, 14.0 nm (25.9 km) SSW.

2022/11/14 14:53 (retrieved 2 years ago)

KALW 141453Z 24005KT 5SM BR OVC031 M01/M02 A3048 RMK AO2 SLP334 T10111022 53009

Closest aviation forecast (TAF) to Weller Canyon Airport

Forecast is more than 12 hours old.

Closest forecast is Walla Walla Regional Airport, 14.0 nm (25.9 km) SSW.

2023/02/22 19:04 Ammendment (retrieved 1 year ago)

TAF AMD KALW 221902Z 2219/2318 19012KT 5SM BR OVC009 TEMPO 2219/2221 1SM -SN OVC005 FM222300 14013KT 5SM HZ OVC019 FM230100 13013KT P6SM SCT030 BKN050 FM230700 13006KT P6SM OVC019 FM231200 17006KT 1 1/2SM -SN BR OVC015 FM231400 18007KT 1/2SM SN FG OVC015